createdAt,value
2022-12-22T00:06:01.200Z,30.4
2022-12-22T00:10:55.179Z,30.4
2022-12-22T00:15:54.295Z,30.7
2022-12-22T00:20:58.962Z,30.8
2022-12-22T00:26:05.266Z,29.4
2022-12-22T00:31:08.532Z,29.2
2022-12-22T00:36:11.950Z,29.5
2022-12-22T00:41:15.049Z,29
2022-12-22T00:46:17.418Z,28.9
2022-12-22T00:51:19.663Z,29.6
2022-12-22T00:56:21.970Z,28.9
2022-12-22T01:01:24.538Z,29.2
2022-12-22T01:06:30.252Z,29.9
2022-12-22T01:11:32.522Z,43.2
2022-12-22T01:16:33.558Z,30.7
2022-12-22T01:21:35.653Z,30.2
2022-12-22T01:26:37.754Z,31.4
2022-12-22T01:31:39.832Z,31.2
2022-12-22T01:36:41.877Z,30.9
2022-12-22T01:41:43.937Z,30.9
2022-12-22T01:46:46.169Z,30.6
2022-12-22T01:51:48.930Z,30.7
2022-12-22T01:56:51.030Z,30.7
2022-12-22T02:01:53.411Z,31.1
2022-12-22T02:07:01.035Z,30.5
2022-12-22T02:12:03.255Z,31.7
2022-12-22T02:17:05.322Z,31.7
2022-12-22T02:22:07.535Z,31.5
2022-12-22T02:27:09.677Z,32.1
2022-12-22T02:32:11.782Z,33
2022-12-22T02:37:14.006Z,34.5
2022-12-22T02:42:16.672Z,32.9
2022-12-22T02:47:18.846Z,32.7
2022-12-22T02:52:21.319Z,31.8
2022-12-22T02:57:23.754Z,32.2
2022-12-22T03:02:26.063Z,32.1
2022-12-22T03:07:31.737Z,32.7
2022-12-22T03:12:34.041Z,32.1
2022-12-22T03:17:36.112Z,33
2022-12-22T03:22:38.548Z,32.2
2022-12-22T03:27:40.578Z,32.6
2022-12-22T03:32:42.630Z,32.9
2022-12-22T03:37:48.804Z,32.9
2022-12-22T03:42:57.812Z,32.7
2022-12-22T03:47:57.160Z,35
2022-12-22T03:53:03.383Z,33.8
2022-12-22T03:58:06.593Z,32.9
2022-12-22T04:03:09.338Z,34.3
2022-12-22T04:08:34.567Z,34
2022-12-22T04:13:24.938Z,34.5
2022-12-22T04:23:29.973Z,35.8
2022-12-22T04:28:33.605Z,34.5
2022-12-22T04:33:37.670Z,34.7
2022-12-22T04:38:40.272Z,34.5
2022-12-22T04:49:01.107Z,35.7
2022-12-22T04:53:49.874Z,34.2
2022-12-22T04:58:52.056Z,51.9
2022-12-22T05:03:54.190Z,35.4
2022-12-22T05:08:56.579Z,34.4
2022-12-22T05:14:07.489Z,33
2022-12-22T05:18:59.965Z,34.6
2022-12-22T05:24:02.401Z,33.7
2022-12-22T05:29:05.000Z,34.4
2022-12-22T05:34:07.170Z,33.6
2022-12-22T05:39:09.874Z,34.3
2022-12-22T05:44:12.266Z,36.3
2022-12-22T05:49:15.452Z,35
2022-12-22T05:54:17.552Z,35.7
2022-12-22T05:59:19.733Z,35.7
2022-12-22T06:04:22.602Z,35.7
2022-12-22T06:09:27.395Z,37.1
2022-12-22T06:14:32.416Z,36.3
2022-12-22T06:19:34.630Z,36.9
2022-12-22T06:24:39.282Z,37.6
2022-12-22T06:29:41.702Z,41.9
2022-12-22T06:34:43.966Z,43.2
2022-12-22T06:39:46.528Z,37.5
2022-12-22T06:44:48.981Z,38.1
2022-12-22T06:49:51.272Z,39.1
2022-12-22T06:54:54.102Z,38.1
2022-12-22T06:59:58.797Z,37.3
2022-12-22T07:05:01.273Z,37.5
2022-12-22T07:10:03.519Z,53.1
2022-12-22T07:15:05.709Z,39.3
2022-12-22T07:20:07.808Z,37.9
2022-12-22T07:25:09.939Z,38
2022-12-22T07:30:12.209Z,37.7
2022-12-22T07:35:14.378Z,37.7
2022-12-22T07:40:16.460Z,37.3
2022-12-22T07:45:18.641Z,37.2
2022-12-22T07:50:20.809Z,36
2022-12-22T07:55:22.866Z,37.4
2022-12-22T08:00:25.031Z,37.2
2022-12-22T08:05:27.264Z,37.3
2022-12-22T08:10:29.482Z,37.5
2022-12-22T08:15:31.694Z,36.9
2022-12-22T08:20:33.899Z,36.5
2022-12-22T08:25:36.193Z,37.2
2022-12-22T08:30:38.841Z,35.3
2022-12-22T08:35:41.395Z,35.1
2022-12-22T08:40:43.824Z,35.8
2022-12-22T08:45:46.106Z,35.8
2022-12-22T08:50:49.068Z,35.3
2022-12-22T08:55:51.611Z,36.2
2022-12-22T09:00:53.891Z,35.5
2022-12-22T09:05:56.546Z,34
2022-12-22T09:10:59.469Z,34.3
2022-12-22T09:16:01.838Z,34.4
2022-12-22T09:21:04.611Z,33.2
2022-12-22T09:26:06.679Z,33.6
2022-12-22T09:31:09.152Z,34.3
2022-12-22T09:36:11.216Z,32.2
2022-12-22T09:41:13.433Z,35.2
2022-12-22T09:46:15.625Z,34.9
2022-12-22T09:51:27.248Z,34.1
2022-12-22T09:56:20.135Z,35.2
2022-12-22T10:01:22.428Z,33.5
2022-12-22T10:06:24.973Z,32.7
2022-12-22T10:11:27.274Z,32.6
2022-12-22T10:16:29.429Z,32.9
2022-12-22T10:21:31.888Z,31.3
2022-12-22T10:26:34.637Z,31.1
2022-12-22T10:31:37.986Z,30.3
2022-12-22T10:36:43.999Z,31.5
2022-12-22T10:41:46.956Z,29.6
2022-12-22T10:46:49.188Z,31.4
2022-12-22T10:51:51.384Z,33.8
2022-12-22T10:56:53.958Z,32.4
2022-12-22T11:01:56.668Z,30.3
2022-12-22T11:07:00.141Z,31.7
2022-12-22T11:12:02.967Z,31.9
2022-12-22T11:17:05.353Z,31.2
2022-12-22T11:22:07.510Z,31.4
2022-12-22T11:27:09.604Z,30.9
2022-12-22T11:32:12.293Z,31.3
2022-12-22T11:37:14.980Z,32.4
2022-12-22T11:42:16.939Z,31.6
2022-12-22T11:47:19.019Z,30.8
2022-12-22T11:52:21.353Z,29.4
2022-12-22T11:57:24.061Z,29.2
2022-12-22T12:02:26.997Z,29.5
2022-12-22T12:07:29.724Z,29.3
2022-12-22T12:12:32.175Z,28.3
2022-12-22T12:17:34.887Z,40.8
2022-12-22T12:22:35.283Z,28.6
2022-12-22T12:27:37.706Z,29
2022-12-22T12:32:39.709Z,42.5
2022-12-22T12:37:40.075Z,29.4
2022-12-22T12:42:42.151Z,29
2022-12-22T12:47:44.294Z,28.1
2022-12-22T12:52:47.137Z,29.2
2022-12-22T12:57:49.304Z,29.5
2022-12-22T13:02:51.619Z,29.8
2022-12-22T13:07:54.575Z,29.2
2022-12-22T13:12:56.754Z,29
2022-12-22T13:17:58.960Z,29.8
2022-12-22T13:23:02.010Z,30.1
2022-12-22T13:28:04.249Z,30.3
2022-12-22T13:33:06.511Z,31.7
2022-12-22T13:38:08.751Z,33.3
2022-12-22T13:43:10.773Z,31.4
2022-12-22T13:48:12.755Z,30.6
2022-12-22T13:54:07.575Z,30.3
2022-12-22T13:58:23.577Z,31.9
2022-12-22T14:04:01.264Z,30.4
2022-12-22T14:08:35.489Z,32.1
2022-12-22T14:13:37.727Z,32.7
2022-12-22T14:18:39.837Z,31.9
2022-12-22T14:23:41.890Z,32.4
2022-12-22T14:28:43.950Z,31
2022-12-22T14:33:46.423Z,33.6
2022-12-22T14:38:48.903Z,31.9
2022-12-22T14:43:51.130Z,33.7
2022-12-22T14:48:53.039Z,35.7
2022-12-22T14:53:55.346Z,34.8
2022-12-22T14:58:57.670Z,35
2022-12-22T15:03:59.883Z,36.5
2022-12-22T15:09:02.137Z,37.1
2022-12-22T15:14:06.758Z,36.8
2022-12-22T15:19:08.819Z,36.6
2022-12-22T15:24:10.838Z,35.3
2022-12-22T15:29:12.919Z,35.8
2022-12-22T15:34:15.501Z,36.5
2022-12-22T15:39:20.428Z,35.2
2022-12-22T15:44:22.461Z,36
2022-12-22T15:49:24.822Z,35.5
2022-12-22T15:54:26.794Z,36.1
2022-12-22T15:59:28.968Z,36.4
2022-12-22T16:04:31.180Z,37.1
2022-12-22T16:09:33.711Z,36.3
2022-12-22T16:14:49.895Z,35.5
2022-12-22T16:19:42.867Z,35.3
2022-12-22T16:24:44.951Z,35.6
2022-12-22T16:29:47.057Z,36.2
2022-12-22T16:34:50.456Z,37.5
2022-12-22T16:39:55.697Z,36.1
2022-12-22T16:45:00.737Z,36.1
2022-12-22T16:50:03.183Z,36.4
2022-12-22T16:55:05.392Z,35.2
2022-12-22T17:00:09.400Z,34.5
2022-12-22T17:05:08.973Z,34.8
2022-12-22T17:10:11.263Z,34.1
2022-12-22T17:15:16.146Z,33.9
2022-12-22T17:20:18.312Z,34
2022-12-22T17:25:20.321Z,34.9
2022-12-22T17:30:22.530Z,38.3
2022-12-22T17:35:25.957Z,35.8
2022-12-22T17:40:28.442Z,35.6
2022-12-22T17:45:31.253Z,36.9
2022-12-22T17:50:34.108Z,38
2022-12-22T17:56:09.677Z,38.1
2022-12-22T18:00:42.175Z,39.3
2022-12-22T18:05:44.219Z,40.1
2022-12-22T18:10:46.424Z,39.7
2022-12-22T18:15:50.064Z,39.5
2022-12-22T18:21:08.331Z,39.6
2022-12-22T18:26:00.637Z,41.5
2022-12-22T18:31:03.022Z,40.1
2022-12-22T18:36:07.116Z,39.7
2022-12-22T18:41:09.564Z,41.9
2022-12-22T18:46:11.587Z,41.4
2022-12-22T18:51:13.780Z,41.4
2022-12-22T18:56:15.747Z,43.6
2022-12-22T19:01:17.964Z,45.6
2022-12-22T19:06:20.496Z,44.1
2022-12-22T19:11:22.770Z,42.7
2022-12-22T19:16:25.036Z,44.4
2022-12-22T19:21:27.665Z,43.6
2022-12-22T19:26:30.469Z,42.3
2022-12-22T19:31:33.328Z,41.9
2022-12-22T19:36:36.749Z,42.6
2022-12-22T19:41:39.034Z,39.5
2022-12-22T19:46:41.273Z,40
2022-12-22T19:51:43.955Z,40.2
2022-12-22T19:56:46.648Z,39.4
2022-12-22T20:01:49.326Z,37.7
2022-12-22T20:06:52.752Z,37.9
2022-12-22T20:11:57.650Z,38.7
2022-12-22T20:16:59.165Z,38.9
2022-12-22T20:22:01.621Z,42.1
2022-12-22T20:27:03.819Z,44.1
2022-12-22T20:32:06.079Z,44.9
2022-12-22T20:37:08.981Z,45.5
2022-12-22T20:42:11.208Z,44.9
2022-12-22T20:47:22.943Z,43.9
2022-12-22T20:52:15.746Z,45.5
2022-12-22T20:57:17.878Z,45.3
2022-12-22T21:02:20.326Z,43.7
2022-12-22T21:07:23.840Z,44.5
2022-12-22T21:12:25.928Z,43.4
2022-12-22T21:17:27.937Z,43.1
2022-12-22T21:22:29.977Z,45.2
2022-12-22T21:27:31.954Z,49.3
2022-12-22T21:32:36.600Z,46.8
2022-12-22T21:37:39.029Z,50.3
2022-12-22T21:42:41.105Z,47.5
2022-12-22T21:47:43.240Z,48.9
2022-12-22T21:52:47.714Z,52.3
2022-12-22T21:57:50.875Z,57.1
2022-12-22T22:02:53.514Z,51
2022-12-22T22:07:54.995Z,49.6
2022-12-22T22:12:58.624Z,48.6
2022-12-22T22:18:07.877Z,56.5
2022-12-22T22:23:10.147Z,51.9
2022-12-22T22:28:12.637Z,51.4
2022-12-22T22:33:14.657Z,50
2022-12-22T22:38:17.302Z,53.4
2022-12-22T22:43:19.366Z,52.3
2022-12-22T22:48:21.572Z,53.7
2022-12-22T22:53:23.740Z,50.5
2022-12-22T22:58:25.735Z,51.6
2022-12-22T23:03:27.942Z,54.5
2022-12-22T23:08:30.546Z,53.1
2022-12-22T23:13:32.584Z,55.7
2022-12-22T23:18:34.710Z,55.4
2022-12-22T23:23:37.095Z,57.4
2022-12-22T23:28:39.327Z,55.5
2022-12-22T23:33:41.330Z,60.2
2022-12-22T23:38:43.563Z,60.6
2022-12-22T23:43:45.547Z,60.6
2022-12-22T23:53:49.691Z,64.3
2022-12-22T23:58:56.034Z,61.7
